Time,TemperatureF,DewpointF,PressureIn,WindDirection,WindDirectionDegrees,WindSpeedMPH,WindSpeedGustMPH,Humidity,HourlyPrecipIn,Conditions,Clouds,dailyrainin,SoftwareType,DateUTC
2013-08-10 00:08:00,67.3,67.0,29.74,SSW,197,0.0,0.0,100,0.00,,,0.00,weatherlink.com 1.10,2013-08-10 04:08:00,
2013-08-10 00:23:00,67.6,68.0,29.74,SSW,197,0.0,0.0,100,0.00,,,0.00,weatherlink.com 1.10,2013-08-10 04:23:00,
2013-08-10 00:38:00,68.0,68.0,29.74,SSW,197,0.0,0.0,100,0.00,,,0.00,weatherlink.com 1.10,2013-08-10 04:38:00,
2013-08-10 00:53:00,68.0,68.0,29.75,SSW,197,0.0,0.0,100,0.00,,,0.00,weatherlink.com 1.10,2013-08-10 04:53:00,
2013-08-10 01:08:00,67.9,68.0,29.75,SSW,197,0.0,0.0,100,0.00,,,0.00,weatherlink.com 1.10,2013-08-10 05:08:00,
2013-08-10 01:23:00,67.8,68.0,29.75,SSW,197,0.0,0.0,100,0.00,,,0.00,weatherlink.com 1.10,2013-08-10 05:23:00,
2013-08-10 01:38:00,67.7,68.0,29.75,SSW,197,0.0,0.0,100,0.00,,,0.00,weatherlink.com 1.10,2013-08-10 05:38:00,
2013-08-10 01:53:00,67.5,68.0,29.75,SSW,197,0.0,0.0,100,0.00,,,0.00,weatherlink.com 1.10,2013-08-10 05:53:00,
2013-08-10 02:08:00,67.4,67.0,29.75,SSW,197,0.0,0.0,100,0.00,,,0.00,weatherlink.com 1.10,2013-08-10 06:08:00,
2013-08-10 02:23:00,67.6,68.0,29.74,West,276,0.0,0.0,100,0.00,,,0.00,weatherlink.com 1.10,2013-08-10 06:23:00,
2013-08-10 02:38:00,67.7,68.0,29.75,West,276,0.0,0.0,100,0.00,,,0.00,weatherlink.com 1.10,2013-08-10 06:38:00,
2013-08-10 02:53:00,67.7,68.0,29.75,West,276,0.0,0.0,100,0.00,,,0.00,weatherlink.com 1.10,2013-08-10 06:53:00,
2013-08-10 03:08:00,67.6,68.0,29.75,West,276,0.0,0.0,100,0.00,,,0.00,weatherlink.com 1.10,2013-08-10 07:08:00,
2013-08-10 03:23:00,67.6,68.0,29.76,West,277,0.0,0.0,100,0.00,,,0.00,weatherlink.com 1.10,2013-08-10 07:23:00,
2013-08-10 03:38:00,67.5,68.0,29.76,West,276,0.0,0.0,100,0.00,,,0.00,weatherlink.com 1.10,2013-08-10 07:38:00,
2013-08-10 03:53:00,67.4,67.0,29.77,SE,129,0.0,1.0,100,0.00,,,0.00,weatherlink.com 1.10,2013-08-10 07:53:00,
2013-08-10 04:08:00,66.9,67.0,29.77,NW,315,0.0,1.0,100,0.00,,,0.00,weatherlink.com 1.10,2013-08-10 08:08:00,
2013-08-10 04:23:00,66.3,66.0,29.78,WNW,290,0.0,1.0,100,0.00,,,0.00,weatherlink.com 1.10,2013-08-10 08:23:00,
2013-08-10 04:38:00,65.8,66.0,29.78,North,5,0.0,1.0,99,0.00,,,0.00,weatherlink.com 1.10,2013-08-10 08:38:00,
2013-08-10 04:53:00,65.4,65.0,29.79,NNW,340,1.0,1.0,98,0.00,,,0.00,weatherlink.com 1.10,2013-08-10 08:53:00,
2013-08-10 05:08:00,65.0,65.0,29.79,NW,321,0.0,1.0,98,0.00,,,0.00,weatherlink.com 1.10,2013-08-10 09:08:00,
2013-08-10 05:23:00,64.6,64.0,29.80,NW,319,0.0,1.0,97,0.00,,,0.00,weatherlink.com 1.10,2013-08-10 09:23:00,
2013-08-10 05:38:00,64.3,64.0,29.80,NW,311,0.0,1.0,97,0.00,,,0.00,weatherlink.com 1.10,2013-08-10 09:38:00,
2013-08-10 05:53:00,63.9,63.0,29.80,NW,311,0.0,1.0,97,0.00,,,0.00,weatherlink.com 1.10,2013-08-10 09:53:00,
2013-08-10 06:08:00,63.4,63.0,29.81,NW,311,0.0,0.0,98,0.00,,,0.00,weatherlink.com 1.10,2013-08-10 10:08:00,
2013-08-10 06:23:00,63.0,63.0,29.82,NW,311,0.0,1.0,99,0.00,,,0.00,weatherlink.com 1.10,2013-08-10 10:23:00,
2013-08-10 06:38:00,62.8,63.0,29.82,NW,311,0.0,0.0,99,0.00,,,0.00,weatherlink.com 1.10,2013-08-10 10:38:00,
2013-08-10 06:53:00,62.9,63.0,29.83,NW,311,0.0,0.0,100,0.00,,,0.00,weatherlink.com 1.10,2013-08-10 10:53:00,
2013-08-10 07:08:00,63.1,63.0,29.83,NW,311,0.0,0.0,100,0.00,,,0.00,weatherlink.com 1.10,2013-08-10 11:08:00,
2013-08-10 07:23:00,63.2,63.0,29.83,NW,311,0.0,0.0,100,0.00,,,0.00,weatherlink.com 1.10,2013-08-10 11:23:00,
2013-08-10 07:39:00,63.7,64.0,29.83,ESE,123,0.0,1.0,99,0.00,,,0.00,weatherlink.com 1.10,2013-08-10 11:39:00,
2013-08-10 07:54:00,64.3,64.0,29.83,SE,137,0.0,1.0,98,0.00,,,0.00,weatherlink.com 1.10,2013-08-10 11:54:00,
2013-08-10 08:09:00,65.1,64.0,29.83,SE,129,0.0,2.0,96,0.00,,,0.00,weatherlink.com 1.10,2013-08-10 12:09:00,
2013-08-10 08:24:00,65.8,64.0,29.83,South,176,0.0,3.0,95,0.00,,,0.00,weatherlink.com 1.10,2013-08-10 12:24:00,
2013-08-10 08:39:00,66.5,65.0,29.83,SSE,165,0.0,4.0,94,0.00,,,0.00,weatherlink.com 1.10,2013-08-10 12:39:00,
2013-08-10 08:54:00,67.3,65.0,29.83,ESE,119,1.0,3.0,91,0.00,,,0.00,weatherlink.com 1.10,2013-08-10 12:54:00,
2013-08-10 09:09:00,68.1,65.0,29.83,ESE,121,1.0,2.0,91,0.00,,,0.00,weatherlink.com 1.10,2013-08-10 13:09:00,
2013-08-10 09:24:00,68.5,63.0,29.83,ENE,70,1.0,6.0,83,0.00,,,0.00,weatherlink.com 1.10,2013-08-10 13:24:00,
2013-08-10 09:39:00,69.3,64.0,29.83,SSW,211,0.0,4.0,84,0.00,,,0.00,weatherlink.com 1.10,2013-08-10 13:39:00,
2013-08-10 09:54:00,70.5,63.0,29.83,NW,317,1.0,3.0,77,0.00,,,0.00,weatherlink.com 1.10,2013-08-10 13:54:00,
2013-08-10 10:09:00,71.7,65.0,29.83,NW,316,2.0,5.0,78,0.00,,,0.00,weatherlink.com 1.10,2013-08-10 14:09:00,
2013-08-10 10:24:00,72.7,64.0,29.83,SSW,204,0.0,4.0,74,0.00,,,0.00,weatherlink.com 1.10,2013-08-10 14:24:00,
2013-08-10 10:39:00,73.5,61.0,29.83,NNE,30,1.0,3.0,66,0.00,,,0.00,weatherlink.com 1.10,2013-08-10 14:39:00,
2013-08-10 10:54:00,73.8,60.0,29.83,NW,304,1.0,5.0,63,0.00,,,0.00,weatherlink.com 1.10,2013-08-10 14:54:00,
2013-08-10 11:09:00,74.6,62.0,29.83,NW,318,1.0,4.0,64,0.00,,,0.00,weatherlink.com 1.10,2013-08-10 15:09:00,
2013-08-10 11:24:00,74.9,60.0,29.83,West,281,1.0,6.0,60,0.00,,,0.00,weatherlink.com 1.10,2013-08-10 15:24:00,
2013-08-10 11:39:00,75.3,60.0,29.82,WSW,256,1.0,3.0,60,0.00,,,0.00,weatherlink.com 1.10,2013-08-10 15:39:00,
2013-08-10 11:54:00,75.4,61.0,29.83,SSW,211,0.0,3.0,62,0.00,,,0.00,weatherlink.com 1.10,2013-08-10 15:54:00,
2013-08-10 12:09:00,75.7,63.0,29.83,SE,136,1.0,3.0,65,0.00,,,0.00,weatherlink.com 1.10,2013-08-10 16:09:00,
2013-08-10 12:24:00,76.3,58.0,29.83,WNW,283,2.0,4.0,54,0.00,,,0.00,weatherlink.com 1.10,2013-08-10 16:24:00,
2013-08-10 12:39:00,76.5,57.0,29.83,WNW,290,1.0,4.0,51,0.00,,,0.00,weatherlink.com 1.10,2013-08-10 16:39:00,
2013-08-10 12:54:00,77.3,58.0,29.84,NW,318,3.0,3.0,51,0.00,,,0.00,weatherlink.com 1.10,2013-08-10 16:54:00,
2013-08-10 13:09:00,77.4,57.0,29.84,WNW,288,0.0,3.0,49,0.00,,,0.00,weatherlink.com 1.10,2013-08-10 17:09:00,
2013-08-10 13:24:00,77.8,56.0,29.84,NNW,330,1.0,3.0,48,0.00,,,0.00,weatherlink.com 1.10,2013-08-10 17:24:00,
2013-08-10 13:39:00,77.8,55.0,29.84,NNW,339,4.0,8.0,46,0.00,,,0.00,weatherlink.com 1.10,2013-08-10 17:39:00,
2013-08-10 13:54:00,77.7,56.0,29.84,ESE,102,2.0,6.0,48,0.00,,,0.00,weatherlink.com 1.10,2013-08-10 17:54:00,
2013-08-10 14:09:00,78.1,58.0,29.84,West,262,2.0,3.0,50,0.00,,,0.00,weatherlink.com 1.10,2013-08-10 18:09:00,
2013-08-10 14:24:00,78.1,58.0,29.85,NNW,343,0.0,2.0,51,0.00,,,0.00,weatherlink.com 1.10,2013-08-10 18:24:00,
2013-08-10 14:39:00,78.0,56.0,29.85,NNW,340,1.0,3.0,46,0.00,,,0.00,weatherlink.com 1.10,2013-08-10 18:39:00,
2013-08-10 14:54:00,78.1,59.0,29.85,NE,51,0.0,3.0,52,0.00,,,0.00,weatherlink.com 1.10,2013-08-10 18:54:00,
2013-08-10 15:09:00,77.0,57.0,29.85,SE,139,0.0,3.0,51,0.00,,,0.00,weatherlink.com 1.10,2013-08-10 19:09:00,
2013-08-10 15:24:00,76.3,56.0,29.85,NE,43,1.0,3.0,50,0.00,,,0.00,weatherlink.com 1.10,2013-08-10 19:24:00,
2013-08-10 15:39:00,75.9,57.0,29.86,NW,323,0.0,2.0,52,0.00,,,0.00,weatherlink.com 1.10,2013-08-10 19:39:00,
2013-08-10 15:54:00,75.1,57.0,29.86,West,280,1.0,2.0,53,0.00,,,0.00,weatherlink.com 1.10,2013-08-10 19:54:00,
2013-08-10 16:09:00,75.2,58.0,29.86,NE,54,1.0,2.0,55,0.00,,,0.00,weatherlink.com 1.10,2013-08-10 20:09:00,
2013-08-10 16:24:00,75.3,56.0,29.86,NNE,30,0.0,2.0,52,0.00,,,0.00,weatherlink.com 1.10,2013-08-10 20:24:00,
2013-08-10 16:39:00,74.6,55.0,29.87,West,276,1.0,3.0,51,0.00,,,0.00,weatherlink.com 1.10,2013-08-10 20:39:00,
2013-08-10 16:54:00,74.4,57.0,29.87,WNW,293,1.0,1.0,54,0.00,,,0.00,weatherlink.com 1.10,2013-08-10 20:54:00,
2013-08-10 17:09:00,73.6,58.0,29.87,SSE,165,0.0,1.0,58,0.00,,,0.00,weatherlink.com 1.10,2013-08-10 21:09:00,
2013-08-10 17:25:00,73.3,57.0,29.87,ENE,75,0.0,1.0,56,0.00,,,0.00,weatherlink.com 1.10,2013-08-10 21:25:00,
2013-08-10 17:40:00,73.0,57.0,29.88,NNW,345,0.0,2.0,57,0.00,,,0.00,weatherlink.com 1.10,2013-08-10 21:40:00,
2013-08-10 17:55:00,72.8,55.0,29.88,North,349,0.0,2.0,53,0.00,,,0.00,weatherlink.com 1.10,2013-08-10 21:55:00,
2013-08-10 18:10:00,72.0,55.0,29.88,NNW,347,0.0,1.0,56,0.00,,,0.00,weatherlink.com 1.10,2013-08-10 22:10:00,
2013-08-10 18:25:00,71.3,56.0,29.89,NNW,342,0.0,1.0,58,0.00,,,0.00,weatherlink.com 1.10,2013-08-10 22:25:00,
2013-08-10 18:40:00,70.6,59.0,29.89,NNW,342,0.0,0.0,66,0.00,,,0.00,weatherlink.com 1.10,2013-08-10 22:40:00,
2013-08-10 18:55:00,69.5,58.0,29.89,NNW,343,0.0,1.0,66,0.00,,,0.00,weatherlink.com 1.10,2013-08-10 22:55:00,
2013-08-10 19:10:00,68.1,58.0,29.90,NNW,341,0.0,0.0,71,0.00,,,0.00,weatherlink.com 1.10,2013-08-10 23:10:00,
2013-08-10 19:25:00,66.6,58.0,29.90,NNW,342,0.0,0.0,74,0.00,,,0.00,weatherlink.com 1.10,2013-08-10 23:25:00,
2013-08-10 19:40:00,65.7,58.0,29.90,NNW,341,0.0,1.0,75,0.00,,,0.00,weatherlink.com 1.10,2013-08-10 23:40:00,
2013-08-10 19:55:00,65.3,57.0,29.91,NNW,342,0.0,0.0,74,0.00,,,0.00,weatherlink.com 1.10,2013-08-10 23:55:00,
2013-08-10 20:10:00,64.8,57.0,29.91,NNW,341,0.0,0.0,77,0.00,,,0.00,weatherlink.com 1.10,2013-08-11 00:10:00,
2013-08-10 20:25:00,64.2,57.0,29.91,NNW,341,0.0,0.0,78,0.00,,,0.00,weatherlink.com 1.10,2013-08-11 00:25:00,
2013-08-10 20:40:00,63.9,57.0,29.92,NNW,341,0.0,0.0,78,0.00,,,0.00,weatherlink.com 1.10,2013-08-11 00:40:00,
2013-08-10 20:55:00,63.1,57.0,29.93,NNW,341,0.0,0.0,80,0.00,,,0.00,weatherlink.com 1.10,2013-08-11 00:55:00,
2013-08-10 21:10:00,62.4,56.0,29.94,NNW,342,0.0,0.0,79,0.00,,,0.00,weatherlink.com 1.10,2013-08-11 01:10:00,
2013-08-10 21:25:00,61.9,56.0,29.95,NNW,342,0.0,0.0,80,0.00,,,0.00,weatherlink.com 1.10,2013-08-11 01:25:00,
2013-08-10 21:40:00,62.0,55.0,29.95,NNW,341,0.0,0.0,77,0.00,,,0.00,weatherlink.com 1.10,2013-08-11 01:40:00,
2013-08-10 21:55:00,62.2,54.0,29.95,NNW,341,0.0,1.0,74,0.00,,,0.00,weatherlink.com 1.10,2013-08-11 01:55:00,
2013-08-10 22:10:00,61.8,53.0,29.96,NNW,341,0.0,0.0,73,0.00,,,0.00,weatherlink.com 1.10,2013-08-11 02:10:00,
2013-08-10 22:25:00,61.0,54.0,29.96,NNW,342,0.0,0.0,78,0.00,,,0.00,weatherlink.com 1.10,2013-08-11 02:25:00,
2013-08-10 22:40:00,60.4,54.0,29.97,NNW,341,0.0,0.0,78,0.00,,,0.00,weatherlink.com 1.10,2013-08-11 02:40:00,
2013-08-10 23:10:00,59.1,53.0,29.98,NNW,341,0.0,0.0,80,0.00,,,0.00,weatherlink.com 1.10,2013-08-11 03:10:00,
2013-08-10 23:26:00,58.7,53.0,29.98,NNW,342,0.0,0.0,82,0.00,,,0.00,weatherlink.com 1.10,2013-08-11 03:26:00,
2013-08-10 23:41:00,58.0,53.0,29.98,NNW,342,0.0,0.0,84,0.00,,,0.00,weatherlink.com 1.10,2013-08-11 03:41:00,